sensor_id;sensor_type;location;lat;lon;timestamp;pressure;altitude;pressure_sealevel;temperature;humidity
46379;BME280;32084;42.254;22.744;2024-03-02T00:01:15;94610.28;;;9.42;100.00
46379;BME280;32084;42.254;22.744;2024-03-02T00:03:42;94612.78;;;9.51;100.00
46379;BME280;32084;42.254;22.744;2024-03-02T00:06:08;94621.09;;;9.48;100.00
46379;BME280;32084;42.254;22.744;2024-03-02T00:08:34;94620.47;;;9.38;100.00
46379;BME280;32084;42.254;22.744;2024-03-02T00:11:01;94625.63;;;9.15;100.00
46379;BME280;32084;42.254;22.744;2024-03-02T00:13:29;94625.94;;;9.04;100.00
46379;BME280;32084;42.254;22.744;2024-03-02T00:15:56;94625.25;;;9.18;100.00
46379;BME280;32084;42.254;22.744;2024-03-02T00:18:26;94613.94;;;9.41;100.00
46379;BME280;32084;42.254;22.744;2024-03-02T00:20:53;94606.28;;;9.46;100.00
46379;BME280;32084;42.254;22.744;2024-03-02T00:23:20;94605.09;;;9.48;100.00
46379;BME280;32084;42.254;22.744;2024-03-02T00:25:51;94611.13;;;9.58;100.00
46379;BME280;32084;42.254;22.744;2024-03-02T00:28:21;94601.75;;;9.63;100.00
46379;BME280;32084;42.254;22.744;2024-03-02T00:33:19;94610.63;;;9.55;100.00
46379;BME280;32084;42.254;22.744;2024-03-02T00:35:46;94605.41;;;9.62;100.00
46379;BME280;32084;42.254;22.744;2024-03-02T00:38:12;94607.56;;;9.74;100.00
46379;BME280;32084;42.254;22.744;2024-03-02T00:40:38;94600.41;;;9.75;100.00
46379;BME280;32084;42.254;22.744;2024-03-02T00:43:05;94597.06;;;9.81;100.00
46379;BME280;32084;42.254;22.744;2024-03-02T00:45:31;94588.38;;;9.87;100.00
46379;BME280;32084;42.254;22.744;2024-03-02T00:47:57;94597.38;;;9.86;100.00
46379;BME280;32084;42.254;22.744;2024-03-02T00:50:23;94595.06;;;9.83;100.00
46379;BME280;32084;42.254;22.744;2024-03-02T00:52:49;94597.06;;;9.73;100.00
46379;BME280;32084;42.254;22.744;2024-03-02T00:55:16;94595.28;;;9.49;100.00
46379;BME280;32084;42.254;22.744;2024-03-02T00:57:42;94602.09;;;9.35;100.00
46379;BME280;32084;42.254;22.744;2024-03-02T01:00:10;94591.78;;;9.32;100.00
46379;BME280;32084;42.254;22.744;2024-03-02T01:02:38;94595.28;;;9.32;100.00
46379;BME280;32084;42.254;22.744;2024-03-02T01:05:04;94594.78;;;9.45;100.00
46379;BME280;32084;42.254;22.744;2024-03-02T01:07:31;94594.75;;;9.53;100.00
46379;BME280;32084;42.254;22.744;2024-03-02T01:09:57;94600.44;;;9.58;100.00
46379;BME280;32084;42.254;22.744;2024-03-02T01:12:24;94589.75;;;9.58;100.00
46379;BME280;32084;42.254;22.744;2024-03-02T01:14:50;94583.75;;;9.56;100.00
46379;BME280;32084;42.254;22.744;2024-03-02T01:17:16;94589.25;;;9.63;100.00
46379;BME280;32084;42.254;22.744;2024-03-02T01:19:43;94585.75;;;9.63;100.00
46379;BME280;32084;42.254;22.744;2024-03-02T01:22:09;94585.94;;;9.45;100.00
46379;BME280;32084;42.254;22.744;2024-03-02T01:24:35;94581.41;;;9.12;100.00
46379;BME280;32084;42.254;22.744;2024-03-02T01:27:01;94584.44;;;9.01;100.00
46379;BME280;32084;42.254;22.744;2024-03-02T01:29:27;94585.75;;;8.89;100.00
46379;BME280;32084;42.254;22.744;2024-03-02T01:31:54;94584.91;;;8.88;100.00
46379;BME280;32084;42.254;22.744;2024-03-02T01:34:20;94581.41;;;8.79;100.00
46379;BME280;32084;42.254;22.744;2024-03-02T01:36:46;94573.28;;;8.97;100.00
46379;BME280;32084;42.254;22.744;2024-03-02T01:39:12;94571.25;;;9.08;100.00
46379;BME280;32084;42.254;22.744;2024-03-02T01:41:38;94569.75;;;9.22;100.00
46379;BME280;32084;42.254;22.744;2024-03-02T01:44:05;94571.75;;;9.19;100.00
46379;BME280;32084;42.254;22.744;2024-03-02T01:46:31;94571.25;;;9.16;100.00
46379;BME280;32084;42.254;22.744;2024-03-02T01:48:57;94567.44;;;9.18;100.00
46379;BME280;32084;42.254;22.744;2024-03-02T01:51:23;94563.28;;;9.24;100.00
46379;BME280;32084;42.254;22.744;2024-03-02T01:53:49;94564.25;;;9.31;100.00
46379;BME280;32084;42.254;22.744;2024-03-02T01:56:15;94558.56;;;9.43;100.00
46379;BME280;32084;42.254;22.744;2024-03-02T01:58:41;94556.25;;;9.48;100.00
46379;BME280;32084;42.254;22.744;2024-03-02T02:01:08;94560.91;;;9.54;100.00
46379;BME280;32084;42.254;22.744;2024-03-02T02:03:36;94567.75;;;9.56;100.00
46379;BME280;32084;42.254;22.744;2024-03-02T02:06:03;94562.41;;;9.48;100.00
46379;BME280;32084;42.254;22.744;2024-03-02T02:08:29;94558.44;;;9.36;100.00
46379;BME280;32084;42.254;22.744;2024-03-02T02:10:55;94566.25;;;9.46;100.00
46379;BME280;32084;42.254;22.744;2024-03-02T02:13:21;94567.41;;;9.51;100.00
46379;BME280;32084;42.254;22.744;2024-03-02T02:15:47;94557.91;;;9.57;100.00
46379;BME280;32084;42.254;22.744;2024-03-02T02:18:13;94555.06;;;9.58;100.00
46379;BME280;32084;42.254;22.744;2024-03-02T02:20:40;94560.56;;;9.57;100.00
46379;BME280;32084;42.254;22.744;2024-03-02T02:23:06;94565.41;;;9.53;100.00
46379;BME280;32084;42.254;22.744;2024-03-02T02:25:34;94567.91;;;9.38;100.00
46379;BME280;32084;42.254;22.744;2024-03-02T02:28:00;94566.44;;;9.36;100.00
46379;BME280;32084;42.254;22.744;2024-03-02T02:30:27;94563.91;;;9.43;100.00
46379;BME280;32084;42.254;22.744;2024-03-02T02:32:53;94564.59;;;9.53;100.00
46379;BME280;32084;42.254;22.744;2024-03-02T02:35:19;94560.72;;;9.55;100.00
46379;BME280;32084;42.254;22.744;2024-03-02T02:37:46;94561.38;;;9.57;100.00
46379;BME280;32084;42.254;22.744;2024-03-02T02:40:12;94558.06;;;9.55;100.00
46379;BME280;32084;42.254;22.744;2024-03-02T02:42:39;94567.25;;;9.53;100.00
46379;BME280;32084;42.254;22.744;2024-03-02T02:45:06;94563.25;;;9.49;100.00
46379;BME280;32084;42.254;22.744;2024-03-02T02:47:32;94568.25;;;9.52;100.00
46379;BME280;32084;42.254;22.744;2024-03-02T02:50:01;94564.94;;;9.42;100.00
46379;BME280;32084;42.254;22.744;2024-03-02T02:52:32;94568.59;;;9.32;100.00
46379;BME280;32084;42.254;22.744;2024-03-02T02:54:59;94567.59;;;9.25;100.00
46379;BME280;32084;42.254;22.744;2024-03-02T02:57:25;94562.91;;;9.27;100.00
46379;BME280;32084;42.254;22.744;2024-03-02T02:59:51;94558.59;;;9.26;100.00
46379;BME280;32084;42.254;22.744;2024-03-02T03:02:17;94557.59;;;9.35;100.00
46379;BME280;32084;42.254;22.744;2024-03-02T03:04:44;94549.91;;;9.41;100.00
46379;BME280;32084;42.254;22.744;2024-03-02T03:07:10;94551.06;;;9.46;100.00
46379;BME280;32084;42.254;22.744;2024-03-02T03:09:37;94558.09;;;9.47;100.00
46379;BME280;32084;42.254;22.744;2024-03-02T03:12:04;94555.91;;;9.51;100.00
46379;BME280;32084;42.254;22.744;2024-03-02T03:14:30;94557.56;;;9.52;100.00
46379;BME280;32084;42.254;22.744;2024-03-02T03:16:57;94552.22;;;9.52;100.00
46379;BME280;32084;42.254;22.744;2024-03-02T03:19:23;94559.78;;;9.32;100.00
46379;BME280;32084;42.254;22.744;2024-03-02T03:21:49;94562.59;;;9.14;100.00
46379;BME280;32084;42.254;22.744;2024-03-02T03:24:15;94562.25;;;8.92;100.00
46379;BME280;32084;42.254;22.744;2024-03-02T03:26:41;94558.94;;;8.90;100.00
46379;BME280;32084;42.254;22.744;2024-03-02T03:29:07;94560.59;;;8.99;100.00
46379;BME280;32084;42.254;22.744;2024-03-02T03:31:33;94553.44;;;9.16;100.00
46379;BME280;32084;42.254;22.744;2024-03-02T03:33:59;94557.28;;;9.22;100.00
46379;BME280;32084;42.254;22.744;2024-03-02T03:36:26;94565.59;;;9.27;100.00
46379;BME280;32084;42.254;22.744;2024-03-02T03:38:52;94558.75;;;9.25;100.00
46379;BME280;32084;42.254;22.744;2024-03-02T03:41:18;94565.94;;;9.24;100.00
46379;BME280;32084;42.254;22.744;2024-03-02T03:43:44;94566.44;;;9.19;100.00
46379;BME280;32084;42.254;22.744;2024-03-02T03:46:10;94563.09;;;9.09;100.00
46379;BME280;32084;42.254;22.744;2024-03-02T03:48:37;94562.59;;;9.06;100.00
46379;BME280;32084;42.254;22.744;2024-03-02T03:51:03;94567.44;;;9.02;100.00
46379;BME280;32084;42.254;22.744;2024-03-02T03:53:29;94568.78;;;9.14;100.00
46379;BME280;32084;42.254;22.744;2024-03-02T03:55:55;94564.75;;;9.27;100.00
46379;BME280;32084;42.254;22.744;2024-03-02T03:58:22;94563.09;;;9.34;100.00
46379;BME280;32084;42.254;22.744;2024-03-02T04:00:48;94567.41;;;9.35;100.00
46379;BME280;32084;42.254;22.744;2024-03-02T04:03:14;94571.91;;;9.43;100.00
46379;BME280;32084;42.254;22.744;2024-03-02T04:05:40;94562.91;;;9.44;100.00
46379;BME280;32084;42.254;22.744;2024-03-02T04:08:07;94565.59;;;9.44;100.00
46379;BME280;32084;42.254;22.744;2024-03-02T04:10:33;94564.41;;;9.46;100.00
46379;BME280;32084;42.254;22.744;2024-03-02T04:13:00;94573.06;;;9.48;100.00
46379;BME280;32084;42.254;22.744;2024-03-02T04:15:26;94562.75;;;9.37;100.00
46379;BME280;32084;42.254;22.744;2024-03-02T04:17:52;94570.28;;;9.33;100.00
46379;BME280;32084;42.254;22.744;2024-03-02T04:20:18;94557.59;;;9.35;100.00
46379;BME280;32084;42.254;22.744;2024-03-02T04:22:44;94559.94;;;9.22;100.00
46379;BME280;32084;42.254;22.744;2024-03-02T04:25:10;94558.59;;;9.10;100.00
46379;BME280;32084;42.254;22.744;2024-03-02T04:27:36;94553.78;;;9.05;100.00
46379;BME280;32084;42.254;22.744;2024-03-02T04:30:03;94552.91;;;9.05;100.00
46379;BME280;32084;42.254;22.744;2024-03-02T04:32:31;94545.25;;;9.10;100.00
46379;BME280;32084;42.254;22.744;2024-03-02T04:34:57;94542.28;;;9.13;100.00
46379;BME280;32084;42.254;22.744;2024-03-02T04:37:23;94543.25;;;9.12;100.00
46379;BME280;32084;42.254;22.744;2024-03-02T04:39:49;94548.44;;;9.13;100.00
46379;BME280;32084;42.254;22.744;2024-03-02T04:42:16;94550.75;;;9.25;100.00
46379;BME280;32084;42.254;22.744;2024-03-02T04:44:42;94550.59;;;9.34;100.00
46379;BME280;32084;42.254;22.744;2024-03-02T04:47:08;94551.25;;;9.28;100.00
46379;BME280;32084;42.254;22.744;2024-03-02T04:49:34;94558.09;;;9.23;100.00
46379;BME280;32084;42.254;22.744;2024-03-02T04:52:00;94561.09;;;9.11;100.00
46379;BME280;32084;42.254;22.744;2024-03-02T04:54:26;94566.13;;;9.14;100.00
46379;BME280;32084;42.254;22.744;2024-03-02T04:56:53;94560.94;;;9.13;100.00
46379;BME280;32084;42.254;22.744;2024-03-02T04:59:19;94567.09;;;9.13;100.00
46379;BME280;32084;42.254;22.744;2024-03-02T05:01:45;94565.78;;;9.09;100.00
46379;BME280;32084;42.254;22.744;2024-03-02T05:04:12;94569.09;;;9.11;100.00
46379;BME280;32084;42.254;22.744;2024-03-02T05:06:39;94573.09;;;9.15;100.00
46379;BME280;32084;42.254;22.744;2024-03-02T05:09:08;94572.78;;;9.18;100.00
46379;BME280;32084;42.254;22.744;2024-03-02T05:11:35;94573.09;;;9.24;100.00
46379;BME280;32084;42.254;22.744;2024-03-02T05:14:04;94574.28;;;9.21;100.00
46379;BME280;32084;42.254;22.744;2024-03-02T05:16:34;94574.78;;;9.16;100.00
46379;BME280;32084;42.254;22.744;2024-03-02T05:19:00;94572.44;;;9.22;100.00
46379;BME280;32084;42.254;22.744;2024-03-02T05:21:27;94575.09;;;9.22;100.00
46379;BME280;32084;42.254;22.744;2024-03-02T05:23:53;94585.09;;;9.19;100.00
46379;BME280;32084;42.254;22.744;2024-03-02T05:26:19;94581.09;;;9.24;100.00
46379;BME280;32084;42.254;22.744;2024-03-02T05:28:45;94579.78;;;9.28;100.00
46379;BME280;32084;42.254;22.744;2024-03-02T05:31:11;94579.59;;;9.21;100.00
46379;BME280;32084;42.254;22.744;2024-03-02T05:33:40;94580.94;;;9.17;100.00
46379;BME280;32084;42.254;22.744;2024-03-02T05:36:07;94589.09;;;9.15;100.00
46379;BME280;32084;42.254;22.744;2024-03-02T05:38:36;94591.09;;;9.05;100.00
46379;BME280;32084;42.254;22.744;2024-03-02T05:41:02;94588.25;;;8.98;100.00
46379;BME280;32084;42.254;22.744;2024-03-02T05:43:29;94601.59;;;8.98;100.00
46379;BME280;32084;42.254;22.744;2024-03-02T05:45:55;94602.91;;;9.03;100.00
46379;BME280;32084;42.254;22.744;2024-03-02T05:48:21;94602.13;;;9.18;100.00
46379;BME280;32084;42.254;22.744;2024-03-02T05:50:48;94598.47;;;9.28;100.00
46379;BME280;32084;42.254;22.744;2024-03-02T05:53:14;94597.13;;;9.32;100.00
46379;BME280;32084;42.254;22.744;2024-03-02T05:55:41;94607.47;;;9.43;100.00
46379;BME280;32084;42.254;22.744;2024-03-02T05:58:07;94607.94;;;9.55;100.00
46379;BME280;32084;42.254;22.744;2024-03-02T06:00:53;94605.09;;;9.65;100.00
46379;BME280;32084;42.254;22.744;2024-03-02T06:03:20;94605.94;;;9.49;100.00
46379;BME280;32084;42.254;22.744;2024-03-02T06:05:46;94608.78;;;9.39;100.00
46379;BME280;32084;42.254;22.744;2024-03-02T06:08:15;94614.09;;;9.31;100.00
46379;BME280;32084;42.254;22.744;2024-03-02T06:10:41;94607.13;;;9.30;100.00
46379;BME280;32084;42.254;22.744;2024-03-02T06:13:07;94611.78;;;9.28;100.00
46379;BME280;32084;42.254;22.744;2024-03-02T06:15:33;94617.28;;;9.26;100.00
46379;BME280;32084;42.254;22.744;2024-03-02T06:18:02;94605.78;;;9.34;100.00
46379;BME280;32084;42.254;22.744;2024-03-02T06:20:28;94600.94;;;9.46;100.00
46379;BME280;32084;42.254;22.744;2024-03-02T06:22:56;94612.75;;;9.60;100.00
46379;BME280;32084;42.254;22.744;2024-03-02T06:25:23;94619.44;;;9.72;100.00
46379;BME280;32084;42.254;22.744;2024-03-02T06:27:49;94621.44;;;9.62;100.00
46379;BME280;32084;42.254;22.744;2024-03-02T06:30:15;94623.13;;;9.54;100.00
46379;BME280;32084;42.254;22.744;2024-03-02T06:32:41;94618.63;;;9.55;100.00
46379;BME280;32084;42.254;22.744;2024-03-02T06:35:08;94625.25;;;9.67;100.00
46379;BME280;32084;42.254;22.744;2024-03-02T06:37:36;94622.94;;;9.72;100.00
46379;BME280;32084;42.254;22.744;2024-03-02T06:40:02;94625.94;;;9.69;100.00
46379;BME280;32084;42.254;22.744;2024-03-02T06:42:29;94628.78;;;9.68;100.00
46379;BME280;32084;42.254;22.744;2024-03-02T06:44:59;94627.94;;;9.75;100.00
46379;BME280;32084;42.254;22.744;2024-03-02T06:47:25;94629.78;;;9.83;100.00
46379;BME280;32084;42.254;22.744;2024-03-02T06:49:51;94629.09;;;9.89;100.00
46379;BME280;32084;42.254;22.744;2024-03-02T06:52:19;94627.09;;;9.83;100.00
46379;BME280;32084;42.254;22.744;2024-03-02T06:54:47;94633.25;;;9.92;100.00
46379;BME280;32084;42.254;22.744;2024-03-02T06:57:14;94636.09;;;9.90;100.00
46379;BME280;32084;42.254;22.744;2024-03-02T06:59:40;94636.75;;;9.84;100.00
46379;BME280;32084;42.254;22.744;2024-03-02T07:02:06;94640.09;;;9.86;100.00
46379;BME280;32084;42.254;22.744;2024-03-02T07:04:32;94646.09;;;9.88;100.00
46379;BME280;32084;42.254;22.744;2024-03-02T07:06:58;94644.59;;;10.02;100.00
46379;BME280;32084;42.254;22.744;2024-03-02T07:09:24;94643.28;;;9.98;100.00
46379;BME280;32084;42.254;22.744;2024-03-02T07:11:51;94648.44;;;9.91;100.00
46379;BME280;32084;42.254;22.744;2024-03-02T07:14:18;94654.13;;;9.96;100.00
46379;BME280;32084;42.254;22.744;2024-03-02T07:16:44;94645.59;;;10.01;100.00
46379;BME280;32084;42.254;22.744;2024-03-02T07:19:10;94650.44;;;10.06;100.00
46379;BME280;32084;42.254;22.744;2024-03-02T07:21:36;94649.88;;;10.19;100.00
46379;BME280;32084;42.254;22.744;2024-03-02T07:24:02;94657.09;;;10.10;100.00
46379;BME280;32084;42.254;22.744;2024-03-02T07:26:29;94649.06;;;10.18;100.00
46379;BME280;32084;42.254;22.744;2024-03-02T07:28:57;94656.91;;;10.20;100.00
46379;BME280;32084;42.254;22.744;2024-03-02T07:31:23;94655.09;;;10.12;100.00
46379;BME280;32084;42.254;22.744;2024-03-02T07:33:49;94654.91;;;10.05;100.00
46379;BME280;32084;42.254;22.744;2024-03-02T07:36:15;94664.94;;;10.11;100.00
46379;BME280;32084;42.254;22.744;2024-03-02T07:38:42;94662.06;;;10.13;100.00
46379;BME280;32084;42.254;22.744;2024-03-02T07:41:10;94665.78;;;10.12;100.00
46379;BME280;32084;42.254;22.744;2024-03-02T07:43:37;94673.16;;;10.02;100.00
46379;BME280;32084;42.254;22.744;2024-03-02T07:46:03;94671.13;;;10.04;100.00
46379;BME280;32084;42.254;22.744;2024-03-02T07:48:29;94672.28;;;10.09;100.00
46379;BME280;32084;42.254;22.744;2024-03-02T07:50:56;94674.94;;;10.18;100.00
46379;BME280;32084;42.254;22.744;2024-03-02T07:53:23;94669.09;;;10.30;100.00
46379;BME280;32084;42.254;22.744;2024-03-02T07:55:49;94679.25;;;10.27;100.00
46379;BME280;32084;42.254;22.744;2024-03-02T07:58:15;94675.94;;;10.33;100.00
46379;BME280;32084;42.254;22.744;2024-03-02T08:00:41;94684.13;;;10.31;100.00
46379;BME280;32084;42.254;22.744;2024-03-02T08:03:08;94681.94;;;10.35;100.00
46379;BME280;32084;42.254;22.744;2024-03-02T08:05:37;94683.75;;;10.43;100.00
46379;BME280;32084;42.254;22.744;2024-03-02T08:08:04;94681.06;;;10.43;100.00
46379;BME280;32084;42.254;22.744;2024-03-02T08:10:30;94687.81;;;10.30;100.00
46379;BME280;32084;42.254;22.744;2024-03-02T08:12:56;94689.47;;;10.23;100.00
46379;BME280;32084;42.254;22.744;2024-03-02T08:15:22;94693.13;;;10.22;100.00
46379;BME280;32084;42.254;22.744;2024-03-02T08:17:49;94693.63;;;10.42;100.00
46379;BME280;32084;42.254;22.744;2024-03-02T08:20:15;94698.22;;;10.65;100.00
46379;BME280;32084;42.254;22.744;2024-03-02T08:22:42;94694.00;;;10.79;100.00
46379;BME280;32084;42.254;22.744;2024-03-02T08:25:08;94696.06;;;10.68;100.00
46379;BME280;32084;42.254;22.744;2024-03-02T08:27:34;94674.75;;;10.44;100.00
46379;BME280;32084;42.254;22.744;2024-03-02T08:30:00;94693.22;;;10.62;100.00
46379;BME280;32084;42.254;22.744;2024-03-02T08:32:27;94700.69;;;10.74;100.00
46379;BME280;32084;42.254;22.744;2024-03-02T08:34:53;94688.75;;;10.93;100.00
46379;BME280;32084;42.254;22.744;2024-03-02T08:37:19;94693.88;;;11.03;100.00
46379;BME280;32084;42.254;22.744;2024-03-02T08:39:45;94690.38;;;11.03;100.00
46379;BME280;32084;42.254;22.744;2024-03-02T08:42:11;94690.31;;;11.11;99.46
46379;BME280;32084;42.254;22.744;2024-03-02T08:44:38;94693.97;;;11.18;99.13
46379;BME280;32084;42.254;22.744;2024-03-02T08:47:04;94694.38;;;11.07;99.49
46379;BME280;32084;42.254;22.744;2024-03-02T08:49:30;94691.84;;;11.05;99.00
46379;BME280;32084;42.254;22.744;2024-03-02T08:51:56;94694.50;;;11.13;97.36
46379;BME280;32084;42.254;22.744;2024-03-02T08:54:23;94689.97;;;11.14;97.87
46379;BME280;32084;42.254;22.744;2024-03-02T08:56:49;94689.44;;;11.19;97.34
46379;BME280;32084;42.254;22.744;2024-03-02T08:59:16;94693.50;;;11.38;96.32
46379;BME280;32084;42.254;22.744;2024-03-02T09:01:42;94692.75;;;11.75;95.84
46379;BME280;32084;42.254;22.744;2024-03-02T09:04:09;94687.22;;;12.00;94.50
46379;BME280;32084;42.254;22.744;2024-03-02T09:06:35;94687.94;;;11.94;92.79
46379;BME280;32084;42.254;22.744;2024-03-02T09:09:01;94697.44;;;12.34;90.20
46379;BME280;32084;42.254;22.744;2024-03-02T09:11:27;94694.50;;;12.74;91.67
46379;BME280;32084;42.254;22.744;2024-03-02T09:13:54;94692.28;;;12.62;89.23
46379;BME280;32084;42.254;22.744;2024-03-02T09:16:21;94692.19;;;12.41;91.51
46379;BME280;32084;42.254;22.744;2024-03-02T09:18:48;94697.34;;;12.27;94.54
46379;BME280;32084;42.254;22.744;2024-03-02T09:21:14;94696.56;;;12.04;93.06
46379;BME280;32084;42.254;22.744;2024-03-02T09:23:41;94704.59;;;12.04;91.85
46379;BME280;32084;42.254;22.744;2024-03-02T09:26:07;94694.91;;;12.03;88.69
46379;BME280;32084;42.254;22.744;2024-03-02T09:28:33;94700.19;;;12.11;90.20
46379;BME280;32084;42.254;22.744;2024-03-02T09:31:00;94695.34;;;12.06;91.83
46379;BME280;32084;42.254;22.744;2024-03-02T09:33:26;94698.50;;;11.95;93.09
46379;BME280;32084;42.254;22.744;2024-03-02T09:35:53;94700.31;;;11.95;93.20
46379;BME280;32084;42.254;22.744;2024-03-02T09:38:19;94697.00;;;11.93;91.91
46379;BME280;32084;42.254;22.744;2024-03-02T09:40:45;94692.16;;;12.11;91.53
46379;BME280;32084;42.254;22.744;2024-03-02T09:43:11;94690.63;;;11.94;90.17
46379;BME280;32084;42.254;22.744;2024-03-02T09:45:38;94700.31;;;11.95;90.42
46379;BME280;32084;42.254;22.744;2024-03-02T09:48:04;94699.28;;;12.19;88.74
46379;BME280;32084;42.254;22.744;2024-03-02T09:50:30;94695.72;;;12.03;91.50
46379;BME280;32084;42.254;22.744;2024-03-02T09:52:56;94692.00;;;11.89;90.29
46379;BME280;32084;42.254;22.744;2024-03-02T09:55:24;94697.09;;;11.76;89.53
46379;BME280;32084;42.254;22.744;2024-03-02T09:57:50;94693.41;;;11.77;92.27
46379;BME280;32084;42.254;22.744;2024-03-02T10:00:17;94695.44;;;11.75;90.80
46379;BME280;32084;42.254;22.744;2024-03-02T10:02:43;94689.59;;;11.95;93.18
46379;BME280;32084;42.254;22.744;2024-03-02T10:05:10;94688.88;;;12.01;90.73
46379;BME280;32084;42.254;22.744;2024-03-02T10:07:36;94689.44;;;11.96;91.79
46379;BME280;32084;42.254;22.744;2024-03-02T10:10:23;94692.44;;;11.93;90.87
46379;BME280;32084;42.254;22.744;2024-03-02T10:12:49;94690.72;;;12.00;89.26
46379;BME280;32084;42.254;22.744;2024-03-02T10:15:29;94688.94;;;11.93;87.46
46379;BME280;32084;42.254;22.744;2024-03-02T10:17:55;94686.78;;;12.11;87.75
46379;BME280;32084;42.254;22.744;2024-03-02T10:20:25;94695.66;;;12.11;87.94
46379;BME280;32084;42.254;22.744;2024-03-02T10:22:52;94686.69;;;12.19;87.79
46379;BME280;32084;42.254;22.744;2024-03-02T10:25:33;94688.09;;;12.30;85.25
46379;BME280;32084;42.254;22.744;2024-03-02T10:28:00;94687.47;;;12.28;84.78
46379;BME280;32084;42.254;22.744;2024-03-02T10:30:27;94686.53;;;12.21;87.04
46379;BME280;32084;42.254;22.744;2024-03-02T10:32:54;94695.78;;;12.18;86.36
46379;BME280;32084;42.254;22.744;2024-03-02T10:35:24;94693.13;;;12.33;85.02
46379;BME280;32084;42.254;22.744;2024-03-02T10:37:54;94692.56;;;12.38;84.95
46379;BME280;32084;42.254;22.744;2024-03-02T10:40:21;94690.63;;;12.32;85.50
46379;BME280;32084;42.254;22.744;2024-03-02T10:42:47;94683.66;;;12.22;82.63
46379;BME280;32084;42.254;22.744;2024-03-02T10:45:15;94669.63;;;12.35;82.39
46379;BME280;32084;42.254;22.744;2024-03-02T10:47:42;94679.53;;;12.49;84.01
46379;BME280;32084;42.254;22.744;2024-03-02T10:50:08;94680.34;;;12.65;83.80
46379;BME280;32084;42.254;22.744;2024-03-02T10:52:35;94676.28;;;12.69;85.91
46379;BME280;32084;42.254;22.744;2024-03-02T10:55:02;94667.50;;;12.60;83.66
46379;BME280;32084;42.254;22.744;2024-03-02T10:57:33;94675.16;;;12.78;82.40
46379;BME280;32084;42.254;22.744;2024-03-02T11:00:03;94670.06;;;12.98;84.91
46379;BME280;32084;42.254;22.744;2024-03-02T11:02:29;94670.41;;;13.10;80.88
46379;BME280;32084;42.254;22.744;2024-03-02T11:04:56;94671.47;;;12.94;80.13
46379;BME280;32084;42.254;22.744;2024-03-02T11:07:25;94669.88;;;13.00;80.20
46379;BME280;32084;42.254;22.744;2024-03-02T11:10:00;94672.63;;;13.06;81.05
46379;BME280;32084;42.254;22.744;2024-03-02T11:12:32;94669.84;;;13.15;80.43
46379;BME280;32084;42.254;22.744;2024-03-02T11:15:00;94668.97;;;12.93;79.45
46379;BME280;32084;42.254;22.744;2024-03-02T11:17:29;94664.44;;;12.78;79.55
46379;BME280;32084;42.254;22.744;2024-03-02T11:19:55;94661.56;;;12.80;82.59
46379;BME280;32084;42.254;22.744;2024-03-02T11:22:23;94659.22;;;12.92;80.01
46379;BME280;32084;42.254;22.744;2024-03-02T11:24:49;94663.41;;;12.94;80.70
46379;BME280;32084;42.254;22.744;2024-03-02T11:28:00;94660.59;;;13.17;79.55
46379;BME280;32084;42.254;22.744;2024-03-02T11:30:06;94657.41;;;13.43;80.89
46379;BME280;32084;42.254;22.744;2024-03-02T11:32:33;94652.91;;;13.51;76.25
46379;BME280;32084;42.254;22.744;2024-03-02T11:34:59;94658.56;;;13.77;77.99
46379;BME280;32084;42.254;22.744;2024-03-02T11:37:28;94650.16;;;13.87;76.10
46379;BME280;32084;42.254;22.744;2024-03-02T11:39:55;94646.75;;;13.78;77.11
46379;BME280;32084;42.254;22.744;2024-03-02T11:42:21;94647.84;;;13.84;79.30
46379;BME280;32084;42.254;22.744;2024-03-02T11:44:47;94653.94;;;13.93;77.95
46379;BME280;32084;42.254;22.744;2024-03-02T11:47:15;94643.56;;;13.90;75.47
46379;BME280;32084;42.254;22.744;2024-03-02T11:49:43;94649.34;;;13.65;73.70
46379;BME280;32084;42.254;22.744;2024-03-02T11:52:10;94647.53;;;13.51;77.38
46379;BME280;32084;42.254;22.744;2024-03-02T11:54:37;94640.94;;;13.75;76.33
46379;BME280;32084;42.254;22.744;2024-03-02T11:57:07;94641.59;;;13.77;76.56
46379;BME280;32084;42.254;22.744;2024-03-02T11:59:34;94639.00;;;13.90;77.33
46379;BME280;32084;42.254;22.744;2024-03-02T12:02:00;94640.13;;;13.74;72.92
46379;BME280;32084;42.254;22.744;2024-03-02T12:04:26;94637.28;;;13.82;77.05
46379;BME280;32084;42.254;22.744;2024-03-02T12:07:00;94639.00;;;14.12;73.61
46379;BME280;32084;42.254;22.744;2024-03-02T12:09:27;94642.97;;;14.22;72.38
46379;BME280;32084;42.254;22.744;2024-03-02T12:12:06;94640.06;;;14.17;73.76
46379;BME280;32084;42.254;22.744;2024-03-02T12:14:33;94639.97;;;14.04;73.08
46379;BME280;32084;42.254;22.744;2024-03-02T12:16:59;94632.44;;;13.93;74.74
46379;BME280;32084;42.254;22.744;2024-03-02T12:19:26;94632.91;;;14.03;69.18
46379;BME280;32084;42.254;22.744;2024-03-02T12:21:53;94638.53;;;14.08;71.15
46379;BME280;32084;42.254;22.744;2024-03-02T12:24:20;94628.63;;;14.09;73.53
46379;BME280;32084;42.254;22.744;2024-03-02T12:26:46;94633.66;;;14.18;72.98
46379;BME280;32084;42.254;22.744;2024-03-02T12:29:14;94629.63;;;14.36;70.92
46379;BME280;32084;42.254;22.744;2024-03-02T12:31:42;94629.19;;;14.32;72.95
46379;BME280;32084;42.254;22.744;2024-03-02T12:34:08;94627.53;;;14.31;71.53
46379;BME280;32084;42.254;22.744;2024-03-02T12:36:38;94623.75;;;13.91;68.26
46379;BME280;32084;42.254;22.744;2024-03-02T12:39:05;94611.16;;;13.98;70.13
46379;BME280;32084;42.254;22.744;2024-03-02T12:41:31;94622.75;;;13.98;70.48
46379;BME280;32084;42.254;22.744;2024-03-02T12:43:57;94619.38;;;13.90;70.97
46379;BME280;32084;42.254;22.744;2024-03-02T12:46:24;94613.00;;;13.91;73.70
46379;BME280;32084;42.254;22.744;2024-03-02T12:48:51;94611.59;;;14.01;74.50